createdAt,value
2018-08-23T00:01:23.815Z,10.70
2018-08-23T00:03:52.780Z,12.80
2018-08-23T00:06:21.250Z,11.73
2018-08-23T00:08:50.555Z,14.40
2018-08-23T00:11:26.427Z,12.13
2018-08-23T00:13:55.788Z,12.07
2018-08-23T00:16:59.916Z,13.30
2018-08-23T00:19:28.472Z,11.53
2018-08-23T00:21:57.002Z,12.97
2018-08-23T00:24:25.482Z,13.33
2018-08-23T00:26:55.415Z,14.70
2018-08-23T00:29:28.204Z,19.70
2018-08-23T00:31:58.992Z,11.93
2018-08-23T00:34:31.811Z,15.17
2018-08-23T00:37:01.048Z,16.47
2018-08-23T00:39:30.113Z,14.63
2018-08-23T00:42:19.287Z,11.97
2018-08-23T00:44:58.723Z,17.00
2018-08-23T00:47:31.100Z,14.10
2018-08-23T00:49:59.840Z,13.83
2018-08-23T00:52:41.654Z,14.43
2018-08-23T00:55:19.773Z,15.73
2018-08-23T00:57:48.332Z,13.03
2018-08-23T01:00:18.137Z,14.90
2018-08-23T01:02:50.240Z,14.80
2018-08-23T01:05:24.233Z,13.10
2018-08-23T01:07:52.929Z,13.33
2018-08-23T01:10:21.500Z,12.77
2018-08-23T01:13:01.221Z,15.23
2018-08-23T01:15:30.543Z,18.80
2018-08-23T01:18:17.586Z,12.00
2018-08-23T01:20:47.193Z,11.70
2018-08-23T01:23:15.800Z,14.00
2018-08-23T01:25:45.476Z,11.77
2018-08-23T01:28:13.944Z,12.43
2018-08-23T01:30:43.039Z,11.97
2018-08-23T01:33:20.336Z,11.70
2018-08-23T01:35:50.144Z,12.33
2018-08-23T01:38:19.100Z,15.27
2018-08-23T01:40:47.521Z,13.73
2018-08-23T01:43:16.034Z,13.67
2018-08-23T01:45:44.523Z,11.03
2018-08-23T01:48:13.015Z,14.07
2018-08-23T01:50:41.536Z,13.80
2018-08-23T01:53:10.004Z,22.10
2018-08-23T01:55:38.449Z,13.03
2018-08-23T01:58:06.909Z,11.30
2018-08-23T02:00:36.379Z,13.47
2018-08-23T02:03:05.009Z,12.00
2018-08-23T02:05:37.741Z,12.60
2018-08-23T02:08:06.377Z,12.23
2018-08-23T02:10:34.844Z,16.80
2018-08-23T02:13:03.392Z,14.83
2018-08-23T02:16:03.266Z,11.60
2018-08-23T02:18:32.329Z,12.67
2018-08-23T02:21:07.966Z,13.50
2018-08-23T02:23:44.630Z,11.10
2018-08-23T02:26:13.560Z,14.10
2018-08-23T02:28:44.686Z,13.93
2018-08-23T02:31:13.176Z,17.90
2018-08-23T02:33:41.661Z,14.43
2018-08-23T02:36:16.857Z,13.03
2018-08-23T02:38:50.397Z,13.70
2018-08-23T02:41:18.969Z,11.70
2018-08-23T02:43:47.665Z,12.70
2018-08-23T02:46:16.469Z,12.10
2018-08-23T02:48:45.785Z,12.10
2018-08-23T02:51:14.300Z,12.97
2018-08-23T02:53:44.955Z,10.93
2018-08-23T02:56:16.164Z,14.87
2018-08-23T02:58:51.938Z,11.90
2018-08-23T03:01:20.472Z,13.47
2018-08-23T03:04:00.603Z,14.60
2018-08-23T03:06:49.414Z,12.23
2018-08-23T03:09:22.054Z,11.50
2018-08-23T03:11:51.668Z,13.00
2018-08-23T03:14:21.272Z,13.80
2018-08-23T03:16:53.233Z,14.70
2018-08-23T03:19:21.665Z,15.50
2018-08-23T03:21:58.739Z,10.57
2018-08-23T03:24:27.225Z,11.80
2018-08-23T03:26:55.732Z,13.10
2018-08-23T03:29:24.316Z,17.87
2018-08-23T03:31:52.738Z,12.00
2018-08-23T03:34:21.176Z,12.57
2018-08-23T03:36:49.640Z,15.10
2018-08-23T03:39:18.575Z,11.43
2018-08-23T03:41:47.000Z,12.27
2018-08-23T03:44:25.715Z,14.33
2018-08-23T03:46:55.844Z,13.97
2018-08-23T03:49:28.949Z,14.10
2018-08-23T03:51:57.381Z,12.77
2018-08-23T03:54:25.829Z,14.30
2018-08-23T03:57:11.416Z,14.20
2018-08-23T03:59:42.711Z,15.10
2018-08-23T04:02:11.557Z,13.00
2018-08-23T04:04:40.260Z,13.07
2018-08-23T04:07:08.913Z,12.77
2018-08-23T04:09:37.538Z,19.00
2018-08-23T04:12:06.925Z,11.33
2018-08-23T04:14:35.425Z,14.90
2018-08-23T04:17:09.434Z,12.43
2018-08-23T04:19:41.504Z,11.90
2018-08-23T04:22:09.968Z,18.90
2018-08-23T04:24:55.264Z,13.30
2018-08-23T04:27:23.684Z,14.07
2018-08-23T04:29:52.121Z,18.97
2018-08-23T04:32:28.221Z,14.13
2018-08-23T04:34:58.293Z,14.77
2018-08-23T04:37:27.419Z,14.50
2018-08-23T04:40:01.298Z,14.67
2018-08-23T04:42:29.760Z,13.30
2018-08-23T04:44:58.894Z,15.57
2018-08-23T04:47:27.503Z,15.33
2018-08-23T04:49:55.974Z,14.13
2018-08-23T04:52:24.459Z,13.50
2018-08-23T04:54:52.862Z,13.87
2018-08-23T04:57:21.333Z,13.17
2018-08-23T04:59:49.780Z,12.60
2018-08-23T05:02:18.585Z,13.87
2018-08-23T05:04:47.160Z,25.10
2018-08-23T05:07:15.766Z,11.10
2018-08-23T05:09:44.800Z,13.93
2018-08-23T05:12:13.322Z,12.80
2018-08-23T05:14:41.739Z,13.50
2018-08-23T05:17:10.212Z,12.30
2018-08-23T05:19:38.705Z,15.40
2018-08-23T05:22:07.221Z,16.10
2018-08-23T05:24:35.674Z,13.10
2018-08-23T05:27:04.563Z,16.77
2018-08-23T05:29:32.960Z,16.60
2018-08-23T05:32:01.446Z,15.10
2018-08-23T05:34:29.996Z,17.67
2018-08-23T05:36:58.499Z,16.10
2018-08-23T05:40:01.563Z,16.60
2018-08-23T05:42:45.618Z,14.93
2018-08-23T05:45:14.078Z,14.83
2018-08-23T05:47:42.735Z,15.47
2018-08-23T05:50:11.399Z,15.17
2018-08-23T05:52:39.884Z,15.17
2018-08-23T05:55:08.493Z,15.70
2018-08-23T05:57:37.297Z,14.43
2018-08-23T06:00:05.832Z,15.03
2018-08-23T06:02:34.357Z,13.27
2018-08-23T06:05:03.776Z,16.40
2018-08-23T06:07:32.264Z,13.30
2018-08-23T06:10:00.725Z,15.40
2018-08-23T06:12:33.037Z,12.50
2018-08-23T06:15:01.677Z,13.63
2018-08-23T06:17:30.189Z,14.70
2018-08-23T06:19:58.620Z,18.00
2018-08-23T06:22:27.217Z,14.53
2018-08-23T06:24:55.760Z,15.93
2018-08-23T06:27:24.241Z,17.00
2018-08-23T06:29:52.664Z,13.40
2018-08-23T06:32:21.108Z,14.70
2018-08-23T06:34:51.200Z,15.00
2018-08-23T06:37:21.072Z,17.00
2018-08-23T06:39:49.553Z,17.03
2018-08-23T06:42:18.145Z,15.63
2018-08-23T06:44:54.066Z,15.53
2018-08-23T06:47:26.397Z,14.33
2018-08-23T06:49:55.564Z,19.40
2018-08-23T06:52:35.928Z,13.37
2018-08-23T06:55:05.146Z,13.73
2018-08-23T06:57:40.295Z,13.83
2018-08-23T07:00:09.249Z,16.33
2018-08-23T07:02:41.945Z,16.37
2018-08-23T07:05:11.056Z,18.13
2018-08-23T07:07:39.551Z,14.80
2018-08-23T07:10:08.022Z,12.70
2018-08-23T07:12:36.484Z,14.90
2018-08-23T07:15:05.435Z,17.53
2018-08-23T07:17:33.947Z,12.60
2018-08-23T07:20:04.504Z,16.60
2018-08-23T07:22:34.636Z,15.27
2018-08-23T07:25:03.058Z,13.70
2018-08-23T07:27:31.489Z,15.70
2018-08-23T07:30:00.680Z,15.40
2018-08-23T07:32:30.506Z,16.63
2018-08-23T07:35:11.033Z,13.00
2018-08-23T07:37:43.008Z,11.80
2018-08-23T07:40:12.869Z,13.67
2018-08-23T07:42:42.529Z,16.17
2018-08-23T07:45:11.748Z,11.67
2018-08-23T07:47:56.836Z,13.93
2018-08-23T07:50:26.065Z,15.47
2018-08-23T07:52:55.154Z,16.50
2018-08-23T07:55:23.558Z,14.00
2018-08-23T07:57:51.954Z,11.40
2018-08-23T08:00:37.924Z,11.23
2018-08-23T08:03:06.946Z,14.40
2018-08-23T08:05:38.320Z,10.27
2018-08-23T08:08:07.804Z,12.07
2018-08-23T08:10:41.016Z,10.70
2018-08-23T08:13:09.530Z,14.00
2018-08-23T08:15:37.999Z,11.03
2018-08-23T08:18:17.926Z,12.73
2018-08-23T08:20:53.311Z,11.13
2018-08-23T08:23:21.880Z,11.73
2018-08-23T08:25:50.450Z,11.30
2018-08-23T08:28:19.199Z,12.20
2018-08-23T08:30:48.582Z,19.13
2018-08-23T08:33:21.262Z,11.83
2018-08-23T08:35:49.827Z,12.00
2018-08-23T08:38:18.380Z,15.67
2018-08-23T08:40:48.134Z,12.47
2018-08-23T08:43:16.685Z,11.70
2018-08-23T08:45:45.154Z,15.43
2018-08-23T08:48:21.981Z,9.37
2018-08-23T08:51:06.070Z,15.90
2018-08-23T08:53:35.137Z,18.10
2018-08-23T08:56:03.624Z,11.37
2018-08-23T08:58:32.175Z,11.10
2018-08-23T09:01:00.636Z,11.33
2018-08-23T09:03:34.176Z,10.40
2018-08-23T09:06:05.076Z,9.77
2018-08-23T09:08:35.197Z,10.97
2018-08-23T09:11:03.872Z,11.83
2018-08-23T09:13:37.705Z,14.37
2018-08-23T09:16:11.955Z,10.97
2018-08-23T09:18:46.193Z,14.10
2018-08-23T09:21:14.651Z,11.80
2018-08-23T09:23:43.108Z,15.53
2018-08-23T09:26:11.653Z,12.20
2018-08-23T09:28:40.089Z,9.63
2018-08-23T09:31:08.583Z,10.23
2018-08-23T09:33:37.037Z,10.70
2018-08-23T09:36:05.579Z,11.33
2018-08-23T09:38:34.042Z,13.33
2018-08-23T09:41:02.515Z,10.87
2018-08-23T09:43:33.074Z,16.73
2018-08-23T09:46:01.501Z,14.40
2018-08-23T09:48:29.944Z,13.67
2018-08-23T09:50:58.498Z,12.37
2018-08-23T09:53:27.103Z,11.50
2018-08-23T09:55:56.650Z,13.87
2018-08-23T09:58:30.491Z,14.00
2018-08-23T10:01:04.305Z,17.13
2018-08-23T10:03:38.008Z,11.73
2018-08-23T10:06:11.872Z,12.40
2018-08-23T10:08:46.635Z,14.10
2018-08-23T10:11:20.815Z,11.10
2018-08-23T10:13:54.530Z,13.27
2018-08-23T10:16:28.176Z,12.10
2018-08-23T10:19:00.660Z,15.80
2018-08-23T10:21:34.581Z,17.77
2018-08-23T10:24:14.374Z,15.33
2018-08-23T10:26:43.054Z,11.70
2018-08-23T10:29:11.469Z,15.80
2018-08-23T10:31:39.956Z,14.90
2018-08-23T10:34:08.416Z,14.20
2018-08-23T10:36:36.941Z,12.67
2018-08-23T10:39:08.561Z,17.17
2018-08-23T10:41:37.041Z,15.00
2018-08-23T10:44:05.829Z,14.00
2018-08-23T10:46:39.721Z,13.83
2018-08-23T10:49:08.204Z,16.80
2018-08-23T10:51:36.716Z,14.10
2018-08-23T10:54:06.016Z,13.90
2018-08-23T10:56:34.617Z,14.43
2018-08-23T10:59:03.167Z,19.67
2018-08-23T11:01:31.621Z,14.63
2018-08-23T11:04:04.315Z,15.50
2018-08-23T11:06:32.948Z,16.90
2018-08-23T11:09:06.805Z,15.83
2018-08-23T11:11:36.873Z,17.33
2018-08-23T11:14:10.684Z,15.57
2018-08-23T11:16:44.661Z,15.07
2018-08-23T11:19:18.528Z,14.70
2018-08-23T11:21:47.000Z,18.57
2018-08-23T11:24:15.612Z,15.97
2018-08-23T11:26:44.084Z,16.50
2018-08-23T11:29:13.455Z,15.30
2018-08-23T11:31:41.892Z,17.60
2018-08-23T11:34:10.946Z,20.73
2018-08-23T11:36:39.482Z,18.53
2018-08-23T11:39:09.180Z,24.80
2018-08-23T11:41:37.632Z,17.63
2018-08-23T11:44:06.255Z,19.20
2018-08-23T11:46:34.715Z,18.00
2018-08-23T11:49:03.191Z,17.77
2018-08-23T11:51:31.652Z,26.13
2018-08-23T11:54:00.298Z,25.20
2018-08-23T11:56:28.813Z,23.50
2018-08-23T11:58:57.625Z,21.13
2018-08-23T12:01:26.602Z,27.60
2018-08-23T12:03:55.172Z,19.70
2018-08-23T12:06:23.728Z,19.93
2018-08-23T12:08:52.124Z,17.40
2018-08-23T12:11:21.243Z,19.50
2018-08-23T12:13:50.951Z,16.53
2018-08-23T12:16:19.821Z,18.03
2018-08-23T12:18:48.784Z,19.50
2018-08-23T12:21:17.389Z,18.60
2018-08-23T12:23:45.865Z,18.40
2018-08-23T12:26:14.433Z,17.30
2018-08-23T12:28:48.083Z,25.97
2018-08-23T12:31:16.659Z,18.47
2018-08-23T12:33:45.725Z,20.50
2018-08-23T12:36:18.537Z,16.33
2018-08-23T12:38:52.514Z,11.83
2018-08-23T12:41:26.413Z,16.93
2018-08-23T12:43:54.863Z,12.30
2018-08-23T12:46:23.372Z,7.17
2018-08-23T12:48:56.718Z,9.63
2018-08-23T12:51:25.841Z,10.90
2018-08-23T12:53:54.714Z,10.10
2018-08-23T12:56:23.306Z,8.80
2018-08-23T12:58:51.915Z,8.30
2018-08-23T13:01:20.421Z,8.33
2018-08-23T13:03:48.927Z,6.93
2018-08-23T13:06:17.391Z,8.10
2018-08-23T13:08:45.876Z,7.63
2018-08-23T13:11:15.021Z,8.20
2018-08-23T13:13:45.072Z,7.07
2018-08-23T13:16:13.528Z,7.30
2018-08-23T13:18:42.049Z,9.50
2018-08-23T13:21:10.549Z,6.60
2018-08-23T13:23:43.234Z,6.90
2018-08-23T13:26:11.780Z,8.60
2018-08-23T13:28:41.550Z,7.50
2018-08-23T13:31:10.074Z,5.97
2018-08-23T13:33:38.588Z,6.20
2018-08-23T13:36:07.179Z,4.53
2018-08-23T13:38:35.624Z,5.20
2018-08-23T13:41:04.134Z,7.70
2018-08-23T13:43:32.670Z,5.77
2018-08-23T13:46:01.888Z,5.43
2018-08-23T13:48:30.506Z,5.57
2018-08-23T13:50:59.024Z,6.10
2018-08-23T13:53:27.538Z,7.63
2018-08-23T13:55:56.017Z,5.90
2018-08-23T13:58:24.651Z,7.07
2018-08-23T14:00:53.114Z,6.20
2018-08-23T14:03:21.782Z,6.50
2018-08-23T14:05:50.285Z,6.50
2018-08-23T14:08:18.809Z,6.20
2018-08-23T14:10:47.337Z,9.60
2018-08-23T14:13:15.873Z,8.53
2018-08-23T14:15:49.802Z,9.00
2018-08-23T14:18:18.331Z,7.87
2018-08-23T14:20:46.934Z,6.63
2018-08-23T14:23:15.422Z,7.10
2018-08-23T14:25:43.900Z,8.53
2018-08-23T14:28:12.424Z,7.93
2018-08-23T14:30:41.156Z,7.60
2018-08-23T14:33:09.635Z,9.40
2018-08-23T14:35:38.199Z,6.40
2018-08-23T14:38:06.684Z,5.83
2018-08-23T14:40:35.249Z,8.30
2018-08-23T14:43:03.711Z,8.33
2018-08-23T14:45:33.485Z,9.23
2018-08-23T14:48:07.274Z,7.50
2018-08-23T14:50:36.633Z,13.80
2018-08-23T14:53:06.018Z,10.77
2018-08-23T14:55:39.852Z,8.00
2018-08-23T14:58:09.906Z,9.00
2018-08-23T15:00:38.413Z,9.47
2018-08-23T15:03:07.249Z,9.10
2018-08-23T15:05:36.112Z,12.27
2018-08-23T15:08:04.644Z,8.70
2018-08-23T15:10:33.141Z,11.47
2018-08-23T15:13:01.645Z,9.67
2018-08-23T15:15:35.412Z,10.13
2018-08-23T15:18:04.371Z,9.23
2018-08-23T15:20:32.872Z,8.27
2018-08-23T15:23:01.325Z,8.73
2018-08-23T15:25:29.808Z,12.53
2018-08-23T15:27:58.294Z,10.33
2018-08-23T15:30:26.727Z,8.90
2018-08-23T15:32:55.321Z,8.73
2018-08-23T15:35:23.738Z,10.33
2018-08-23T15:37:52.249Z,9.73
2018-08-23T15:40:20.885Z,7.93
2018-08-23T15:42:49.478Z,7.30
2018-08-23T15:45:18.652Z,8.37
2018-08-23T15:47:47.329Z,7.27
2018-08-23T15:50:15.920Z,7.90
2018-08-23T15:52:45.398Z,7.33
2018-08-23T15:55:14.750Z,8.60
2018-08-23T15:57:43.153Z,9.40
2018-08-23T16:00:11.650Z,8.07
2018-08-23T16:02:40.248Z,7.97
2018-08-23T16:05:08.920Z,8.87
2018-08-23T16:07:37.649Z,10.60
2018-08-23T16:10:07.775Z,10.30
2018-08-23T16:12:36.320Z,9.10
2018-08-23T16:15:10.110Z,9.70
2018-08-23T16:17:44.754Z,8.10
2018-08-23T16:20:18.725Z,10.93
2018-08-23T16:22:47.311Z,7.87
2018-08-23T16:25:15.892Z,10.13
2018-08-23T16:27:44.841Z,12.77
2018-08-23T16:30:14.418Z,15.27
2018-08-23T16:32:43.001Z,9.10
2018-08-23T16:35:11.569Z,10.90
2018-08-23T16:37:40.612Z,15.73
2018-08-23T16:40:09.024Z,10.57
2018-08-23T16:42:37.464Z,16.77
2018-08-23T16:45:05.982Z,11.50
2018-08-23T16:47:34.515Z,11.47
2018-08-23T16:50:03.142Z,10.47
2018-08-23T16:52:31.603Z,7.83
2018-08-23T16:55:00.154Z,9.37
2018-08-23T16:57:28.619Z,9.03
2018-08-23T16:59:57.117Z,9.97
2018-08-23T17:02:26.381Z,7.87
2018-08-23T17:04:54.989Z,11.10
2018-08-23T17:07:23.529Z,8.97
2018-08-23T17:09:52.033Z,7.33
2018-08-23T17:12:20.481Z,16.57
2018-08-23T17:14:49.148Z,7.93
2018-08-23T17:17:23.032Z,8.43
2018-08-23T17:19:51.468Z,8.67
2018-08-23T17:22:20.280Z,8.43
2018-08-23T17:24:48.786Z,11.93
2018-08-23T17:27:17.190Z,7.57
2018-08-23T17:29:45.790Z,11.40
2018-08-23T17:32:14.265Z,11.00
2018-08-23T17:34:42.696Z,9.13
2018-08-23T17:37:11.162Z,9.17
2018-08-23T17:39:39.716Z,8.97
2018-08-23T17:42:09.424Z,10.60
2018-08-23T17:44:37.961Z,9.67
2018-08-23T17:47:06.508Z,8.00
2018-08-23T17:49:34.964Z,8.97
2018-08-23T17:52:03.493Z,9.50
2018-08-23T17:54:31.937Z,36.20
2018-08-23T17:57:01.024Z,6.83
2018-08-23T17:59:29.469Z,8.07
2018-08-23T18:01:57.983Z,7.57
2018-08-23T18:04:26.614Z,7.97
2018-08-23T18:06:55.125Z,10.47
2018-08-23T18:09:24.069Z,7.83
2018-08-23T18:11:52.485Z,8.10
2018-08-23T18:14:20.954Z,6.20
2018-08-23T18:16:54.737Z,7.93
2018-08-23T18:19:23.377Z,7.87
2018-08-23T18:21:52.365Z,7.50
2018-08-23T18:24:20.841Z,6.97
2018-08-23T18:26:50.121Z,6.33
2018-08-23T18:29:18.562Z,7.03
2018-08-23T18:31:47.048Z,9.33
2018-08-23T18:34:15.601Z,6.63
2018-08-23T18:36:44.044Z,6.13
2018-08-23T18:39:12.655Z,6.93
2018-08-23T18:41:41.266Z,12.40
2018-08-23T18:44:09.738Z,8.70
2018-08-23T18:46:38.189Z,6.13
2018-08-23T18:49:06.664Z,6.60
2018-08-23T18:51:35.123Z,7.77
2018-08-23T18:54:03.665Z,7.70
2018-08-23T18:56:32.155Z,5.70
2018-08-23T18:59:00.600Z,7.20
2018-08-23T19:01:29.114Z,8.73
2018-08-23T19:03:57.639Z,7.67
2018-08-23T19:06:31.719Z,7.13
2018-08-23T19:09:00.298Z,7.40
2018-08-23T19:11:28.764Z,6.47
2018-08-23T19:13:57.337Z,7.40
2018-08-23T19:16:31.220Z,7.50
2018-08-23T19:18:59.766Z,145.60
2018-08-23T19:21:28.285Z,116.33
2018-08-23T19:23:56.736Z,93.50
2018-08-23T19:26:25.211Z,46.70
2018-08-23T19:28:53.690Z,29.67
2018-08-23T19:31:22.265Z,16.53
2018-08-23T19:33:50.647Z,13.33
2018-08-23T19:36:19.192Z,13.83
2018-08-23T19:38:47.631Z,11.33
2018-08-23T19:41:16.150Z,8.43
2018-08-23T19:43:45.215Z,7.90
2018-08-23T19:46:19.167Z,6.07
2018-08-23T19:48:49.420Z,6.60
2018-08-23T19:51:17.892Z,9.30
2018-08-23T19:53:46.516Z,7.57
2018-08-23T19:56:15.895Z,5.80
2018-08-23T19:58:44.369Z,5.80
2018-08-23T20:01:12.861Z,6.87
2018-08-23T20:03:41.379Z,5.60
2018-08-23T20:06:09.803Z,8.83
2018-08-23T20:08:38.290Z,7.63
2018-08-23T20:11:06.850Z,5.53
2018-08-23T20:13:35.356Z,6.30
2018-08-23T20:16:03.855Z,6.33
2018-08-23T20:18:32.392Z,6.77
2018-08-23T20:21:00.853Z,5.60
2018-08-23T20:23:29.329Z,7.60
2018-08-23T20:25:57.891Z,6.20
2018-08-23T20:28:26.445Z,7.47
2018-08-23T20:30:54.902Z,8.83
2018-08-23T20:33:24.109Z,9.60
2018-08-23T20:35:52.573Z,6.30
2018-08-23T20:38:21.734Z,8.37
2018-08-23T20:40:50.269Z,13.43
2018-08-23T20:43:19.170Z,5.80
2018-08-23T20:45:47.641Z,6.90
2018-08-23T20:48:16.125Z,5.83
2018-08-23T20:50:44.565Z,6.50
2018-08-23T20:53:13.136Z,6.37
2018-08-23T20:55:41.589Z,7.87
2018-08-23T20:58:10.261Z,5.40
2018-08-23T21:00:38.722Z,7.10
2018-08-23T21:03:07.201Z,11.30
2018-08-23T21:05:35.747Z,7.33
2018-08-23T21:08:04.200Z,9.27
2018-08-23T21:10:32.709Z,7.60
2018-08-23T21:13:01.155Z,5.90
2018-08-23T21:15:29.624Z,7.20
2018-08-23T21:17:58.211Z,7.00
2018-08-23T21:20:26.648Z,10.47
2018-08-23T21:22:55.104Z,11.53
2018-08-23T21:25:23.542Z,8.20
2018-08-23T21:27:52.073Z,7.63
2018-08-23T21:30:20.552Z,6.57
2018-08-23T21:32:49.076Z,12.70
2018-08-23T21:35:17.518Z,7.50
2018-08-23T21:37:45.982Z,8.23
2018-08-23T21:40:14.463Z,11.73
2018-08-23T21:42:42.918Z,9.87
2018-08-23T21:45:11.426Z,8.97
2018-08-23T21:47:39.942Z,11.40
2018-08-23T21:50:08.708Z,7.93
2018-08-23T21:52:37.152Z,7.57
2018-08-23T21:55:05.815Z,9.30
2018-08-23T21:57:35.105Z,10.67
2018-08-23T22:00:03.785Z,10.37
2018-08-23T22:02:32.273Z,11.87
2018-08-23T22:05:00.948Z,9.80
2018-08-23T22:07:29.636Z,11.43
2018-08-23T22:09:58.087Z,11.73
2018-08-23T22:12:26.876Z,10.03
2018-08-23T22:14:56.324Z,11.27
2018-08-23T22:17:24.908Z,9.60
2018-08-23T22:19:53.616Z,12.90
2018-08-23T22:22:23.060Z,10.37
2018-08-23T22:24:51.525Z,9.83
2018-08-23T22:27:19.984Z,10.23
2018-08-23T22:29:48.412Z,13.70
2018-08-23T22:32:16.889Z,11.63
2018-08-23T22:34:45.341Z,9.10
2018-08-23T22:37:14.752Z,10.27
2018-08-23T22:39:43.293Z,8.43
2018-08-23T22:42:11.795Z,10.80
2018-08-23T22:44:40.252Z,10.50
2018-08-23T22:47:08.711Z,8.90
2018-08-23T22:49:37.215Z,15.10
2018-08-23T22:52:05.708Z,11.13
2018-08-23T22:54:34.156Z,11.10
2018-08-23T22:57:02.620Z,8.50
2018-08-23T22:59:31.083Z,8.07
2018-08-23T23:01:59.464Z,11.17
2018-08-23T23:04:28.555Z,11.10
2018-08-23T23:06:57.837Z,12.00
2018-08-23T23:09:26.282Z,7.70
2018-08-23T23:11:54.754Z,10.00
2018-08-23T23:14:23.232Z,8.77
2018-08-23T23:16:54.316Z,8.00
2018-08-23T23:19:23.153Z,7.87
2018-08-23T23:21:51.576Z,7.03
2018-08-23T23:24:25.429Z,7.77
2018-08-23T23:26:54.522Z,7.33
2018-08-23T23:29:23.133Z,9.57
2018-08-23T23:31:51.656Z,14.10
2018-08-23T23:34:20.104Z,10.63
2018-08-23T23:36:49.256Z,11.43
2018-08-23T23:39:17.744Z,11.20
2018-08-23T23:41:46.156Z,10.53
2018-08-23T23:44:14.612Z,12.60
2018-08-23T23:46:43.097Z,11.90
2018-08-23T23:49:11.864Z,13.90
2018-08-23T23:51:40.796Z,11.00
2018-08-23T23:54:09.548Z,8.90
2018-08-23T23:56:38.006Z,8.40
2018-08-23T23:59:07.214Z,8.27
